Time;durP1;ratioP1;P1;durP2;ratioP2;P2;SDS_P1;SDS_P2;PMS_P1;PMS_P2;Temp;Humidity;BMP_temperature;BMP_pressure;BME280_temperature;BME280_humidity;BME280_pressure;Samples;Min_cycle;Max_cycle;Signal;HPM_P1;HPM_P2
2022/02/24 00:02:10;;;;;;;3.50;1.77;;;;;;;;;;5065744;28;20353;-57
2022/02/24 00:04:37;;;;;;;2.15;1.40;;;;;;;;;;5067732;28;20048;-57
2022/02/24 00:07:03;;;;;;;3.05;1.75;;;;;;;;;;5065614;28;20083;-57
2022/02/24 00:09:30;;;;;;;3.25;1.70;;;;;;;;;;5067481;28;20024;-57
2022/02/24 00:11:57;;;;;;;2.38;1.48;;;;;;;;;;5066632;28;20023;-57
2022/02/24 00:14:23;;;;;;;2.85;1.70;;;;;;;;;;5066871;28;20396;-56
2022/02/24 00:16:50;;;;;;;3.83;2.00;;;;;;;;;;5067168;28;20021;-57
2022/02/24 00:19:16;;;;;;;4.63;2.40;;;;;;;;;;5062986;28;20028;-57
2022/02/24 00:21:43;;;;;;;4.72;2.30;;;;;;;;;;5064977;28;20499;-57
2022/02/24 00:24:10;;;;;;;2.92;1.90;;;;;;;;;;5067521;28;20402;-56
2022/02/24 00:26:37;;;;;;;3.03;2.00;;;;;;;;;;5066218;28;20403;-57
2022/02/24 00:29:03;;;;;;;2.30;1.35;;;;;;;;;;5067187;28;20032;-57
2022/02/24 00:31:29;;;;;;;2.53;1.60;;;;;;;;;;5064376;28;20105;-57
2022/02/24 00:33:55;;;;;;;2.05;1.27;;;;;;;;;;5066706;28;20063;-57
2022/02/24 00:36:21;;;;;;;2.75;1.23;;;;;;;;;;5066560;28;20035;-57
2022/02/24 00:38:47;;;;;;;4.13;1.92;;;;;;;;;;5066930;28;20032;-57
2022/02/24 00:41:15;;;;;;;3.20;1.60;;;;;;;;;;5053125;28;20048;-57
2022/02/24 00:43:42;;;;;;;3.92;1.63;;;;;;;;;;5050874;28;20040;-57
2022/02/24 00:46:08;;;;;;;2.95;1.63;;;;;;;;;;5059700;28;20407;-57
2022/02/24 00:48:34;;;;;;;3.15;1.80;;;;;;;;;;5068498;28;20044;-57
2022/02/24 00:51:00;;;;;;;2.70;1.70;;;;;;;;;;5068622;28;20625;-57
2022/02/24 00:53:26;;;;;;;6.03;1.80;;;;;;;;;;5067094;28;20380;-57
2022/02/24 00:55:53;;;;;;;1.90;1.60;;;;;;;;;;5068782;28;20220;-57
2022/02/24 00:58:19;;;;;;;2.42;1.60;;;;;;;;;;5068234;28;20488;-57
2022/02/24 01:00:45;;;;;;;3.03;1.80;;;;;;;;;;5068721;28;20019;-57
2022/02/24 01:03:11;;;;;;;3.95;1.83;;;;;;;;;;5068348;28;20028;-57
2022/02/24 01:05:37;;;;;;;3.03;1.95;;;;;;;;;;5067353;28;20139;-57
2022/02/24 01:08:03;;;;;;;3.40;1.80;;;;;;;;;;5068700;28;20290;-57
2022/02/24 01:10:29;;;;;;;3.97;2.03;;;;;;;;;;5068121;28;20028;-57
2022/02/24 01:12:55;;;;;;;2.97;1.77;;;;;;;;;;5066916;28;20514;-57
2022/02/24 01:15:21;;;;;;;2.13;1.58;;;;;;;;;;5066911;28;20029;-57
2022/02/24 01:17:47;;;;;;;3.15;1.73;;;;;;;;;;5066002;28;20443;-57
2022/02/24 01:20:13;;;;;;;4.60;1.88;;;;;;;;;;5067835;28;20024;-57
2022/02/24 01:22:39;;;;;;;2.55;1.65;;;;;;;;;;5068365;28;20036;-57
2022/02/24 01:25:05;;;;;;;2.17;1.48;;;;;;;;;;5068435;28;20507;-57
2022/02/24 01:27:32;;;;;;;3.92;1.42;;;;;;;;;;5067003;28;20514;-56
2022/02/24 01:29:58;;;;;;;2.97;1.80;;;;;;;;;;5068227;28;20056;-57
2022/02/24 01:32:25;;;;;;;2.10;1.27;;;;;;;;;;5067451;28;20028;-57
2022/02/24 01:34:58;;;;;;;2.65;1.40;;;;;;;;;;5068195;28;20100;-57
2022/02/24 01:37:25;;;;;;;2.42;1.35;;;;;;;;;;5066804;28;20048;-57
2022/02/24 01:39:51;;;;;;;3.53;1.60;;;;;;;;;;5068157;28;20020;-57
2022/02/24 01:42:18;;;;;;;1.77;1.48;;;;;;;;;;5067666;28;20031;-57
2022/02/24 01:44:46;;;;;;;2.67;1.33;;;;;;;;;;5067861;28;20390;-57
2022/02/24 01:47:12;;;;;;;3.30;1.63;;;;;;;;;;5066831;28;20039;-57
2022/02/24 01:49:39;;;;;;;2.78;1.55;;;;;;;;;;5064826;28;20040;-57
2022/02/24 01:52:06;;;;;;;2.83;1.42;;;;;;;;;;5068118;28;20021;-56
2022/02/24 01:54:34;;;;;;;1.98;1.35;;;;;;;;;;5067648;28;20040;-57
2022/02/24 01:57:00;;;;;;;2.97;1.73;;;;;;;;;;5066748;28;20028;-57
2022/02/24 01:59:27;;;;;;;2.67;1.55;;;;;;;;;;5066446;28;20084;-57
2022/02/24 02:01:53;;;;;;;2.65;1.70;;;;;;;;;;5067669;28;20036;-57
2022/02/24 02:04:19;;;;;;;2.78;1.70;;;;;;;;;;5067312;28;20032;-57
2022/02/24 02:06:45;;;;;;;3.83;1.67;;;;;;;;;;5067831;28;20032;-57
2022/02/24 02:09:13;;;;;;;3.63;1.83;;;;;;;;;;5060314;28;20033;-57
2022/02/24 02:11:40;;;;;;;4.20;1.95;;;;;;;;;;5047918;28;20052;-56
2022/02/24 02:14:09;;;;;;;3.70;2.08;;;;;;;;;;5047684;28;20566;-57
2022/02/24 02:16:35;;;;;;;3.28;2.28;;;;;;;;;;5047417;28;20036;-57
2022/02/24 02:19:01;;;;;;;3.53;1.63;;;;;;;;;;5058198;28;20029;-57
2022/02/24 02:21:31;;;;;;;4.13;2.10;;;;;;;;;;5049110;28;20528;-57
2022/02/24 02:23:57;;;;;;;3.28;1.98;;;;;;;;;;5047879;28;20032;-57
2022/02/24 02:26:23;;;;;;;2.85;1.83;;;;;;;;;;5047479;28;20037;-57
2022/02/24 02:28:49;;;;;;;3.92;2.10;;;;;;;;;;5047803;28;20497;-57
2022/02/24 02:31:19;;;;;;;4.03;1.83;;;;;;;;;;5051220;28;20071;-57
2022/02/24 02:33:45;;;;;;;2.78;2.17;;;;;;;;;;5051541;28;20056;-57
2022/02/24 02:36:11;;;;;;;2.72;1.67;;;;;;;;;;5051684;28;20477;-57
2022/02/24 02:38:38;;;;;;;3.60;1.60;;;;;;;;;;5069109;28;20024;-57
2022/02/24 02:41:04;;;;;;;2.75;1.67;;;;;;;;;;5071480;28;20077;-57
2022/02/24 02:43:30;;;;;;;3.78;1.70;;;;;;;;;;5070172;28;20059;-57
2022/02/24 02:45:56;;;;;;;2.50;1.70;;;;;;;;;;5066153;28;20549;-57
2022/02/24 02:48:22;;;;;;;3.35;1.65;;;;;;;;;;5056212;28;20115;-57
2022/02/24 02:50:48;;;;;;;2.78;1.63;;;;;;;;;;5071134;28;20831;-57
2022/02/24 02:53:14;;;;;;;3.88;1.70;;;;;;;;;;5070715;28;20033;-57
2022/02/24 02:55:41;;;;;;;2.15;1.23;;;;;;;;;;5071514;28;20384;-57
2022/02/24 02:58:07;;;;;;;5.03;1.50;;;;;;;;;;5066551;28;20017;-57
2022/02/24 03:00:33;;;;;;;2.90;1.55;;;;;;;;;;5050703;28;20104;-57
2022/02/24 03:02:59;;;;;;;2.85;1.70;;;;;;;;;;5051039;28;20025;-57
2022/02/24 03:05:25;;;;;;;3.05;1.50;;;;;;;;;;5050778;28;20507;-57
2022/02/24 03:07:51;;;;;;;3.72;1.88;;;;;;;;;;5051775;28;20033;-57
2022/02/24 03:10:17;;;;;;;2.78;1.52;;;;;;;;;;5070560;28;20565;-57
2022/02/24 03:12:43;;;;;;;3.65;1.90;;;;;;;;;;5070785;28;20203;-57
2022/02/24 03:15:13;;;;;;;3.92;1.77;;;;;;;;;;5070425;28;20106;-57
2022/02/24 03:17:44;;;;;;;3.90;1.52;;;;;;;;;;5056715;28;20040;-57
2022/02/24 03:20:10;;;;;;;3.42;1.77;;;;;;;;;;5050744;28;20032;-57
2022/02/24 03:22:36;;;;;;;5.25;2.22;;;;;;;;;;5050587;28;20029;-57
2022/02/24 03:25:03;;;;;;;2.58;1.70;;;;;;;;;;5050689;28;20041;-57
2022/02/24 03:27:30;;;;;;;2.42;1.63;;;;;;;;;;5050457;28;20057;-57
2022/02/24 03:29:56;;;;;;;4.53;1.90;;;;;;;;;;5050070;28;20033;-57
2022/02/24 03:32:22;;;;;;;3.40;1.70;;;;;;;;;;5050150;28;20029;-57
2022/02/24 03:34:48;;;;;;;4.25;1.58;;;;;;;;;;5050400;28;20021;-57
2022/02/24 03:37:14;;;;;;;3.08;1.80;;;;;;;;;;5050095;28;20550;-57
2022/02/24 03:39:42;;;;;;;3.38;1.70;;;;;;;;;;5059640;28;20044;-58
2022/02/24 03:42:08;;;;;;;3.55;1.42;;;;;;;;;;5050009;28;20025;-57
2022/02/24 03:44:35;;;;;;;4.05;1.60;;;;;;;;;;5050060;28;20029;-57
2022/02/24 03:47:01;;;;;;;4.15;1.55;;;;;;;;;;5050246;28;20408;-57
2022/02/24 03:49:27;;;;;;;4.78;2.10;;;;;;;;;;5061510;28;20083;-57
2022/02/24 03:51:53;;;;;;;5.90;1.75;;;;;;;;;;5069982;28;20033;-57
2022/02/24 03:54:19;;;;;;;4.30;1.60;;;;;;;;;;5069588;28;20577;-57
2022/02/24 03:56:46;;;;;;;3.10;1.83;;;;;;;;;;5069890;28;20048;-57
2022/02/24 03:59:12;;;;;;;5.07;1.63;;;;;;;;;;5068792;28;20082;-57
2022/02/24 04:01:38;;;;;;;6.82;2.00;;;;;;;;;;5070018;28;20031;-57
2022/02/24 04:04:04;;;;;;;4.65;1.85;;;;;;;;;;5069744;28;20036;-57
2022/02/24 04:06:30;;;;;;;5.93;1.88;;;;;;;;;;5069594;28;20078;-57
2022/02/24 04:08:56;;;;;;;2.63;1.52;;;;;;;;;;5068490;28;20543;-57
2022/02/24 04:11:22;;;;;;;3.63;1.50;;;;;;;;;;5068247;28;20470;-57
2022/02/24 04:13:49;;;;;;;6.55;2.13;;;;;;;;;;5069453;28;20024;-56
2022/02/24 04:16:15;;;;;;;6.90;1.95;;;;;;;;;;5068995;28;20024;-57
2022/02/24 04:18:41;;;;;;;4.25;1.40;;;;;;;;;;5068746;28;20021;-57
2022/02/24 04:21:07;;;;;;;3.63;1.90;;;;;;;;;;5069215;28;20388;-57
2022/02/24 04:23:33;;;;;;;4.88;1.85;;;;;;;;;;5069304;28;20064;-57
2022/02/24 04:25:59;;;;;;;3.42;1.85;;;;;;;;;;5069322;28;20100;-57
2022/02/24 04:28:25;;;;;;;5.97;2.00;;;;;;;;;;5064171;28;20397;-57
2022/02/24 04:30:51;;;;;;;3.97;1.75;;;;;;;;;;5049177;28;20033;-57
2022/02/24 04:33:17;;;;;;;6.40;1.60;;;;;;;;;;5048912;28;20365;-56
2022/02/24 04:35:43;;;;;;;4.00;1.70;;;;;;;;;;5049251;28;20447;-57
2022/02/24 04:38:09;;;;;;;6.15;2.00;;;;;;;;;;5050159;28;20029;-57
2022/02/24 04:40:36;;;;;;;5.40;1.75;;;;;;;;;;5068959;28;20032;-57
2022/02/24 04:43:02;;;;;;;3.88;1.90;;;;;;;;;;5069089;28;20028;-57
2022/02/24 04:45:28;;;;;;;6.07;1.88;;;;;;;;;;5068575;28;20029;-57
2022/02/24 04:47:54;;;;;;;4.10;1.60;;;;;;;;;;5067851;28;20821;-57
2022/02/24 04:50:20;;;;;;;6.00;1.38;;;;;;;;;;5067403;28;20108;-57
2022/02/24 04:52:46;;;;;;;4.45;1.42;;;;;;;;;;5068268;28;20408;-57
2022/02/24 04:55:12;;;;;;;4.68;1.63;;;;;;;;;;5068723;28;20446;-57
2022/02/24 04:57:38;;;;;;;5.57;1.52;;;;;;;;;;5067716;28;20016;-57
2022/02/24 05:00:05;;;;;;;4.38;1.40;;;;;;;;;;5067571;28;20696;-57
2022/02/24 05:02:31;;;;;;;1.80;1.15;;;;;;;;;;5068492;28;20025;-57
2022/02/24 05:04:57;;;;;;;3.60;1.50;;;;;;;;;;5068613;28;20480;-57
2022/02/24 05:07:23;;;;;;;7.20;1.40;;;;;;;;;;5053786;28;20510;-57
2022/02/24 05:09:49;;;;;;;5.38;1.60;;;;;;;;;;5046988;28;20035;-57
2022/02/24 05:12:15;;;;;;;3.60;1.75;;;;;;;;;;5048350;28;20031;-57
2022/02/24 05:14:41;;;;;;;6.53;1.77;;;;;;;;;;5048517;28;20056;-57
2022/02/24 05:17:07;;;;;;;3.58;1.45;;;;;;;;;;5055575;28;20031;-57
2022/02/24 05:19:33;;;;;;;3.85;1.20;;;;;;;;;;5068264;28;20089;-57
2022/02/24 05:22:00;;;;;;;4.25;1.20;;;;;;;;;;5067468;28;20501;-57
2022/02/24 05:24:26;;;;;;;2.55;0.90;;;;;;;;;;5067792;28;20033;-57
2022/02/24 05:26:52;;;;;;;3.42;1.05;;;;;;;;;;5067475;28;20032;-57
2022/02/24 05:29:18;;;;;;;3.42;1.00;;;;;;;;;;5067861;28;20059;-57
2022/02/24 05:31:44;;;;;;;3.75;1.20;;;;;;;;;;5068255;28;20056;-57
2022/02/24 05:34:10;;;;;;;3.83;1.33;;;;;;;;;;5066862;28;20571;-57
2022/02/24 05:36:38;;;;;;;4.57;1.08;;;;;;;;;;5067026;28;20499;-57
2022/02/24 05:39:04;;;;;;;2.92;1.27;;;;;;;;;;5068109;28;20024;-57
2022/02/24 05:41:30;;;;;;;2.08;1.10;;;;;;;;;;5067869;28;20025;-57
2022/02/24 05:43:56;;;;;;;2.47;0.82;;;;;;;;;;5067838;28;20107;-57
2022/02/24 05:46:23;;;;;;;1.98;0.90;;;;;;;;;;5066070;28;20819;-57
2022/02/24 05:48:49;;;;;;;2.20;1.15;;;;;;;;;;5048067;28;20025;-57
2022/02/24 05:51:15;;;;;;;1.92;0.77;;;;;;;;;;5047573;28;20503;-56
2022/02/24 05:53:41;;;;;;;5.00;1.20;;;;;;;;;;5046997;28;20489;-57
2022/02/24 05:56:07;;;;;;;2.63;1.13;;;;;;;;;;5046906;28;20071;-57
2022/02/24 05:58:33;;;;;;;4.85;1.70;;;;;;;;;;5046233;28;20129;-57
2022/02/24 06:00:59;;;;;;;5.38;1.67;;;;;;;;;;5047619;28;20031;-57
2022/02/24 06:03:25;;;;;;;8.27;1.75;;;;;;;;;;5064105;28;20036;-57
2022/02/24 06:05:53;;;;;;;3.70;1.55;;;;;;;;;;5071813;28;20020;-57
2022/02/24 06:08:20;;;;;;;3.25;1.45;;;;;;;;;;5071799;28;20021;-57
2022/02/24 06:10:46;;;;;;;5.22;1.60;;;;;;;;;;5067472;28;20025;-57
2022/02/24 06:13:12;;;;;;;4.95;1.38;;;;;;;;;;5065859;28;20592;-57
2022/02/24 06:15:38;;;;;;;3.85;1.52;;;;;;;;;;5051921;28;20099;-57
2022/02/24 06:18:08;;;;;;;3.78;1.48;;;;;;;;;;5051695;28;20499;-57
2022/02/24 06:20:34;;;;;;;4.95;1.60;;;;;;;;;;5064411;28;20032;-57
2022/02/24 06:23:00;;;;;;;2.97;1.52;;;;;;;;;;5071838;28;20064;-56
2022/02/24 06:25:26;;;;;;;4.13;1.52;;;;;;;;;;5071412;28;20029;-57
2022/02/24 06:27:52;;;;;;;6.55;1.52;;;;;;;;;;5072738;28;20120;-57
2022/02/24 06:30:18;;;;;;;5.57;1.77;;;;;;;;;;5070283;28;20448;-57
2022/02/24 06:32:45;;;;;;;3.45;1.50;;;;;;;;;;5070366;28;20028;-57
2022/02/24 06:35:12;;;;;;;6.35;1.70;;;;;;;;;;5071641;28;20052;-57
2022/02/24 06:37:42;;;;;;;3.08;1.48;;;;;;;;;;5070043;28;20435;-57
2022/02/24 06:40:09;;;;;;;4.13;1.08;;;;;;;;;;5070386;28;20012;-57
2022/02/24 06:42:35;;;;;;;4.47;1.85;;;;;;;;;;5071483;28;20032;-57
2022/02/24 06:45:03;;;;;;;5.38;1.25;;;;;;;;;;5071291;28;20024;-57
2022/02/24 06:47:29;;;;;;;4.85;1.63;;;;;;;;;;5071159;28;20020;-56
2022/02/24 06:49:55;;;;;;;4.53;1.88;;;;;;;;;;5054759;28;20104;-56
2022/02/24 06:52:21;;;;;;;3.55;1.42;;;;;;;;;;5055379;28;20032;-56
2022/02/24 06:54:47;;;;;;;5.72;1.55;;;;;;;;;;5051102;28;20063;-58
2022/02/24 06:57:13;;;;;;;3.78;1.20;;;;;;;;;;5052169;28;20036;-56
2022/02/24 06:59:39;;;;;;;5.88;1.50;;;;;;;;;;5051399;28;20020;-56
2022/02/24 07:02:06;;;;;;;3.78;1.45;;;;;;;;;;5051116;28;20032;-56
2022/02/24 07:04:35;;;;;;;2.63;1.15;;;;;;;;;;5054741;28;20709;-56
2022/02/24 07:07:01;;;;;;;5.57;1.73;;;;;;;;;;5054282;28;20044;-56
2022/02/24 07:09:28;;;;;;;2.13;1.15;;;;;;;;;;5068922;28;20502;-56
2022/02/24 07:11:55;;;;;;;4.95;1.30;;;;;;;;;;5069709;28;20550;-56
2022/02/24 07:14:21;;;;;;;4.10;1.05;;;;;;;;;;5068411;28;20032;-57
2022/02/24 07:16:49;;;;;;;2.30;0.88;;;;;;;;;;5067798;28;20052;-56
2022/02/24 07:19:15;;;;;;;1.90;0.90;;;;;;;;;;5066462;28;20511;-56
2022/02/24 07:21:42;;;;;;;2.97;0.95;;;;;;;;;;5061938;28;20107;-56
2022/02/24 07:24:08;;;;;;;3.28;1.20;;;;;;;;;;5061704;28;20055;-56
2022/02/24 07:26:34;;;;;;;10.90;3.63;;;;;;;;;;5059351;28;20415;-56
2022/02/24 07:29:01;;;;;;;9.20;3.30;;;;;;;;;;5069745;28;20035;-56
2022/02/24 07:31:29;;;;;;;10.80;4.18;;;;;;;;;;5069435;28;20103;-56
2022/02/24 07:33:55;;;;;;;10.07;3.97;;;;;;;;;;5068603;28;20086;-56
2022/02/24 07:36:21;;;;;;;11.60;4.00;;;;;;;;;;5068524;28;20036;-56
2022/02/24 07:38:47;;;;;;;8.52;3.78;;;;;;;;;;5059230;28;20488;-56
2022/02/24 07:41:13;;;;;;;7.63;3.13;;;;;;;;;;5067673;28;20035;-56
2022/02/24 07:43:39;;;;;;;6.38;3.38;;;;;;;;;;5053370;28;20029;-56
2022/02/24 07:46:05;;;;;;;7.22;2.72;;;;;;;;;;5050298;28;20472;-56
2022/02/24 07:48:31;;;;;;;8.52;2.83;;;;;;;;;;5069637;28;20115;-56
2022/02/24 07:50:59;;;;;;;7.47;2.95;;;;;;;;;;5067949;28;20043;-57
2022/02/24 07:53:28;;;;;;;7.57;2.38;;;;;;;;;;5063707;28;20029;-56
2022/02/24 07:55:55;;;;;;;9.18;2.42;;;;;;;;;;5069756;28;20020;-56
2022/02/24 07:58:21;;;;;;;5.97;2.30;;;;;;;;;;5067066;28;20028;-56
2022/02/24 08:00:47;;;;;;;7.20;1.85;;;;;;;;;;5069640;28;20699;-56
2022/02/24 08:03:14;;;;;;;10.40;2.47;;;;;;;;;;5055352;28;20029;-56
2022/02/24 08:05:40;;;;;;;9.55;2.20;;;;;;;;;;5050003;28;20025;-57
2022/02/24 08:08:07;;;;;;;8.45;2.13;;;;;;;;;;5050179;28;20405;-56
2022/02/24 08:10:33;;;;;;;9.30;2.67;;;;;;;;;;5069380;28;20064;-55
2022/02/24 08:13:01;;;;;;;9.50;2.08;;;;;;;;;;5055261;28;20451;-56
2022/02/24 08:15:28;;;;;;;9.63;2.15;;;;;;;;;;5048922;28;20381;-56
2022/02/24 08:17:54;;;;;;;9.45;2.33;;;;;;;;;;5053614;28;20028;-57
2022/02/24 08:20:20;;;;;;;13.85;3.10;;;;;;;;;;5067184;28;20463;-56
2022/02/24 08:22:49;;;;;;;8.82;2.00;;;;;;;;;;5069157;28;20520;-56
2022/02/24 08:25:17;;;;;;;11.60;2.58;;;;;;;;;;5068823;28;20024;-56
2022/02/24 08:27:44;;;;;;;13.82;2.97;;;;;;;;;;5060388;28;20033;-56
2022/02/24 08:30:14;;;;;;;10.82;2.72;;;;;;;;;;5060853;28;20493;-56
2022/02/24 08:32:41;;;;;;;8.90;2.17;;;;;;;;;;5060688;28;20111;-56
2022/02/24 08:35:08;;;;;;;10.15;2.80;;;;;;;;;;5049711;28;20029;-58
2022/02/24 08:37:34;;;;;;;12.23;3.15;;;;;;;;;;5058749;28;20044;-48
2022/02/24 08:40:01;;;;;;;7.45;2.40;;;;;;;;;;5069908;28;20048;-48
2022/02/24 08:42:27;;;;;;;16.10;3.10;;;;;;;;;;5064962;28;20047;-47
2022/02/24 08:44:54;;;;;;;8.85;2.30;;;;;;;;;;5049973;28;20100;-49
2022/02/24 08:47:20;;;;;;;16.05;3.83;;;;;;;;;;5049616;28;20489;-48
2022/02/24 08:49:47;;;;;;;8.70;2.38;;;;;;;;;;5050045;28;20060;-49
2022/02/24 08:52:13;;;;;;;12.27;2.80;;;;;;;;;;5050241;28;20025;-49
2022/02/24 08:54:39;;;;;;;9.82;2.70;;;;;;;;;;5055880;28;20064;-49
2022/02/24 08:57:06;;;;;;;9.88;2.40;;;;;;;;;;5061178;28;20025;-49
2022/02/24 08:59:32;;;;;;;10.10;2.70;;;;;;;;;;5053015;28;20247;-49
2022/02/24 09:01:58;;;;;;;10.45;2.88;;;;;;;;;;5066820;28;20021;-48
2022/02/24 09:04:24;;;;;;;12.70;3.00;;;;;;;;;;5054856;28;20399;-49
2022/02/24 09:06:50;;;;;;;13.60;3.45;;;;;;;;;;5060320;28;20032;-48
2022/02/24 09:09:17;;;;;;;17.73;4.03;;;;;;;;;;5053353;28;20082;-49
2022/02/24 09:11:43;;;;;;;10.20;3.10;;;;;;;;;;5050168;28;20056;-51
2022/02/24 09:14:10;;;;;;;8.68;2.78;;;;;;;;;;5053686;28;20080;-48
2022/02/24 09:16:38;;;;;;;13.13;3.55;;;;;;;;;;5069075;28;20049;-48
2022/02/24 09:19:04;;;;;;;10.70;3.47;;;;;;;;;;5062913;28;20017;-49
2022/02/24 09:21:30;;;;;;;11.38;3.30;;;;;;;;;;5048635;28;20025;-49
2022/02/24 09:23:56;;;;;;;8.57;3.83;;;;;;;;;;5051477;28;20029;-49
2022/02/24 09:26:22;;;;;;;10.23;3.33;;;;;;;;;;5061014;28;20054;-51
2022/02/24 09:28:48;;;;;;;6.57;1.88;;;;;;;;;;5055017;28;20448;-51
2022/02/24 09:31:14;;;;;;;9.07;2.42;;;;;;;;;;5058944;28;20415;-51
2022/02/24 09:33:40;;;;;;;9.98;2.00;;;;;;;;;;5063233;28;20033;-50
2022/02/24 09:36:06;;;;;;;9.38;2.63;;;;;;;;;;5053462;28;20368;-51
2022/02/24 09:38:33;;;;;;;7.80;2.15;;;;;;;;;;5049673;28;20035;-51
2022/02/24 09:40:59;;;;;;;7.18;2.42;;;;;;;;;;5063889;28;20039;-53
2022/02/24 09:43:27;;;;;;;6.47;1.83;;;;;;;;;;5051128;28;20048;-49
2022/02/24 09:45:56;;;;;;;7.97;2.15;;;;;;;;;;5057270;28;20025;-49
2022/02/24 09:48:28;;;;;;;9.10;2.30;;;;;;;;;;5060028;28;20040;-51
2022/02/24 09:50:54;;;;;;;8.25;2.10;;;;;;;;;;5055832;28;20040;-52
2022/02/24 09:53:21;;;;;;;10.95;2.53;;;;;;;;;;5061858;28;20058;-49
2022/02/24 09:55:47;;;;;;;11.02;2.58;;;;;;;;;;5048399;28;20037;-52
2022/02/24 09:58:13;;;;;;;7.93;1.85;;;;;;;;;;5051962;28;20025;-52
2022/02/24 10:00:40;;;;;;;9.70;2.33;;;;;;;;;;5066773;28;20020;-51
2022/02/24 10:03:24;;;;;;;9.77;2.55;;;;;;;;;;5058343;28;20029;-50
2022/02/24 10:05:50;;;;;;;11.25;2.20;;;;;;;;;;5059487;28;20067;-50
2022/02/24 10:08:16;;;;;;;9.23;2.25;;;;;;;;;;5051089;28;20064;-50
2022/02/24 10:10:43;;;;;;;7.85;2.08;;;;;;;;;;5057086;28;20033;-52
2022/02/24 10:13:13;;;;;;;8.52;2.05;;;;;;;;;;5055208;28;20021;-50
2022/02/24 10:15:41;;;;;;;11.25;2.58;;;;;;;;;;5085040;28;20399;-49
2022/02/24 10:18:11;;;;;;;9.73;2.45;;;;;;;;;;5048311;28;20132;-50
2022/02/24 10:20:44;;;;;;;10.15;2.58;;;;;;;;;;5067856;28;20406;-53
2022/02/24 10:23:11;;;;;;;9.07;2.80;;;;;;;;;;5063320;28;20040;-49
2022/02/24 10:25:38;;;;;;;13.52;4.38;;;;;;;;;;5068434;28;20032;-52
2022/02/24 10:28:05;;;;;;;7.95;3.45;;;;;;;;;;5054532;28;20032;-50
2022/02/24 10:30:31;;;;;;;9.48;3.67;;;;;;;;;;5047942;28;20040;-49
2022/02/24 10:32:57;;;;;;;11.65;3.33;;;;;;;;;;5048281;28;20501;-51
2022/02/24 10:35:29;;;;;;;8.88;3.30;;;;;;;;;;5052661;28;20024;-52
2022/02/24 10:38:03;;;;;;;11.27;4.60;;;;;;;;;;5048166;28;20036;-50
2022/02/24 10:40:33;;;;;;;8.10;3.13;;;;;;;;;;5056916;28;20082;-54
2022/02/24 10:43:19;;;;;;;6.45;2.25;;;;;;;;;;5048443;28;20447;-54
2022/02/24 10:45:47;;;;;;;8.27;2.40;;;;;;;;;;5048031;28;20435;-49
2022/02/24 10:48:13;;;;;;;6.57;2.30;;;;;;;;;;5067303;28;20530;-52
2022/02/24 10:50:55;;;;;;;10.00;2.30;;;;;;;;;;5067845;28;20429;-51
2022/02/24 10:53:22;;;;;;;8.57;2.25;;;;;;;;;;5087087;28;20028;-48
2022/02/24 10:55:58;;;;;;;7.53;2.10;;;;;;;;;;5076712;28;20029;-52
2022/02/24 10:58:26;;;;;;;9.85;2.05;;;;;;;;;;5059388;28;20032;-50
2022/02/24 11:01:04;;;;;;;7.53;2.55;;;;;;;;;;5071544;28;20081;-52
2022/02/24 11:03:30;;;;;;;7.22;2.30;;;;;;;;;;5071358;28;20028;-51
2022/02/24 11:05:59;;;;;;;7.72;2.63;;;;;;;;;;5061093;28;20115;-49
2022/02/24 11:08:27;;;;;;;9.73;2.15;;;;;;;;;;5065537;28;20028;-56
2022/02/24 11:10:54;;;;;;;9.90;3.17;;;;;;;;;;5061941;28;20037;-52
2022/02/24 11:13:20;;;;;;;7.63;2.65;;;;;;;;;;5069434;28;20040;-50
2022/02/24 11:15:46;;;;;;;8.55;2.92;;;;;;;;;;5069133;28;20547;-51
2022/02/24 11:18:13;;;;;;;13.15;3.28;;;;;;;;;;5063661;28;20040;-51
2022/02/24 11:20:39;;;;;;;8.25;3.15;;;;;;;;;;5061269;28;20178;-55
2022/02/24 11:23:07;;;;;;;12.80;3.05;;;;;;;;;;5074738;28;20383;-49
2022/02/24 11:25:36;;;;;;;6.63;2.42;;;;;;;;;;5057776;28;20555;-53
2022/02/24 11:28:04;;;;;;;9.35;2.28;;;;;;;;;;5064571;28;20124;-51
2022/02/24 11:30:32;;;;;;;9.55;2.35;;;;;;;;;;5062983;28;20100;-49
2022/02/24 11:32:58;;;;;;;9.23;2.60;;;;;;;;;;5063647;28;20132;-50
2022/02/24 11:35:25;;;;;;;7.20;2.10;;;;;;;;;;5057009;28;20024;-49
2022/02/24 11:37:54;;;;;;;8.35;2.28;;;;;;;;;;5060678;28;20048;-52
2022/02/24 11:40:28;;;;;;;8.25;2.45;;;;;;;;;;5059466;28;20495;-50
2022/02/24 11:43:09;;;;;;;7.80;2.08;;;;;;;;;;5052653;28;20530;-50
2022/02/24 11:45:42;;;;;;;8.70;2.42;;;;;;;;;;5062213;28;20103;-51
2022/02/24 11:48:15;;;;;;;7.97;2.47;;;;;;;;;;5072701;28;20501;-52
2022/02/24 11:50:43;;;;;;;9.10;1.88;;;;;;;;;;5053986;28;20087;-53
2022/02/24 11:53:29;;;;;;;6.90;2.13;;;;;;;;;;5049723;28;20028;-51
2022/02/24 11:55:56;;;;;;;13.13;5.30;;;;;;;;;;5054017;28;20027;-51
2022/02/24 11:58:40;;;;;;;9.75;3.92;;;;;;;;;;5060702;28;20055;-52
2022/02/24 12:01:06;;;;;;;;;;;;;;;;;;5069478;28;20108;-52
2022/02/24 12:03:44;;;;;;;7.60;2.88;;;;;;;;;;5065600;28;19913;-52
2022/02/24 12:06:14;;;;;;;8.30;2.80;;;;;;;;;;5049931;28;20035;-52
2022/02/24 12:08:59;;;;;;;6.53;2.33;;;;;;;;;;5050082;28;20025;-50
2022/02/24 12:11:36;;;;;;;8.43;3.15;;;;;;;;;;5058733;28;20040;-53
2022/02/24 12:14:07;;;;;;;6.47;2.92;;;;;;;;;;5061881;28;20037;-49
2022/02/24 12:16:33;;;;;;;8.68;2.60;;;;;;;;;;5052539;28;20029;-53
2022/02/24 12:18:59;;;;;;;7.30;2.90;;;;;;;;;;5055523;28;20396;-49
2022/02/24 12:21:40;;;;;;;8.85;2.50;;;;;;;;;;5065350;28;20507;-51
2022/02/24 12:24:19;;;;;;;10.40;3.53;;;;;;;;;;5067730;28;20027;-52
2022/02/24 12:26:46;;;;;;;6.68;3.20;;;;;;;;;;5056747;28;20072;-50
2022/02/24 12:29:26;;;;;;;7.50;2.60;;;;;;;;;;5050420;28;20024;-48
2022/02/24 12:31:57;;;;;;;10.82;2.60;;;;;;;;;;5064406;28;20036;-51
2022/02/24 12:34:23;;;;;;;7.45;2.28;;;;;;;;;;5068682;28;20037;-53
2022/02/24 12:36:49;;;;;;;5.97;2.30;;;;;;;;;;5065288;28;20090;-53
2022/02/24 12:39:15;;;;;;;5.78;2.13;;;;;;;;;;5067106;28;20107;-52
2022/02/24 12:41:41;;;;;;;3.70;1.50;;;;;;;;;;5049379;28;20020;-48
2022/02/24 12:44:23;;;;;;;18.52;12.18;;;;;;;;;;5047712;28;20424;-53
2022/02/24 12:46:50;;;;;;;9.38;4.07;;;;;;;;;;5062203;28;20233;-52
2022/02/24 12:49:16;;;;;;;6.50;2.40;;;;;;;;;;5067129;28;20080;-49
2022/02/24 12:51:43;;;;;;;6.93;1.88;;;;;;;;;;5050026;28;20037;-50
2022/02/24 12:54:16;;;;;;;5.60;1.85;;;;;;;;;;5056653;28;20024;-52
2022/02/24 12:56:42;;;;;;;6.07;2.00;;;;;;;;;;5067913;28;20033;-51
2022/02/24 12:59:12;;;;;;;7.57;2.20;;;;;;;;;;5052959;28;20024;-51
2022/02/24 13:01:38;;;;;;;9.32;2.17;;;;;;;;;;5067481;28;20085;-51
2022/02/24 13:04:15;;;;;;;5.05;1.70;;;;;;;;;;5067400;28;20093;-53
2022/02/24 13:06:43;;;;;;;6.55;2.40;;;;;;;;;;5051810;28;20115;-53
2022/02/24 13:12:15;;;;;;;8.38;2.00;;;;;;;;;;5063875;28;20036;-53
2022/02/24 13:14:46;;;;;;;4.63;1.70;;;;;;;;;;5058075;28;20113;-52
2022/02/24 13:17:20;;;;;;;5.57;1.50;;;;;;;;;;5052691;28;20094;-52
2022/02/24 13:19:46;;;;;;;;;;;;;;;;;;5054801;28;20024;-51
2022/02/24 13:22:12;;;;;;;7.28;1.92;;;;;;;;;;5048367;28;19953;-48
2022/02/24 13:24:41;;;;;;;7.55;1.70;;;;;;;;;;5048091;28;20052;-52
2022/02/24 13:27:09;;;;;;;4.72;1.60;;;;;;;;;;5048359;28;20470;-49
2022/02/24 13:29:39;;;;;;;6.03;2.00;;;;;;;;;;5048312;28;20395;-52
2022/02/24 13:32:12;;;;;;;5.45;1.85;;;;;;;;;;5055493;28;20029;-52
2022/02/24 13:34:39;;;;;;;4.70;1.70;;;;;;;;;;5048151;28;20036;-53
2022/02/24 13:37:06;;;;;;;4.43;1.85;;;;;;;;;;5048505;28;20086;-49
2022/02/24 13:39:36;;;;;;;3.30;1.70;;;;;;;;;;5049215;28;20115;-51
2022/02/24 13:42:04;;;;;;;9.65;2.33;;;;;;;;;;5057333;28;20341;-48
2022/02/24 13:44:37;;;;;;;5.47;1.95;;;;;;;;;;5065512;28;20035;-51
2022/02/24 13:47:08;;;;;;;5.53;1.77;;;;;;;;;;5064729;28;20029;-52
2022/02/24 13:49:35;;;;;;;4.95;2.10;;;;;;;;;;5064680;28;20074;-49
2022/02/24 13:52:02;;;;;;;6.43;1.98;;;;;;;;;;5064451;28;20032;-50
2022/02/24 13:54:29;;;;;;;5.75;1.85;;;;;;;;;;5065176;28;20445;-52
2022/02/24 13:56:56;;;;;;;7.10;1.90;;;;;;;;;;5064385;28;20025;-51
2022/02/24 13:59:24;;;;;;;3.58;1.70;;;;;;;;;;5047628;28;20047;-51
2022/02/24 14:01:53;;;;;;;4.85;2.20;;;;;;;;;;5055650;28;20087;-50
2022/02/24 14:04:23;;;;;;;7.03;2.33;;;;;;;;;;5065774;28;20039;-49
2022/02/24 14:06:49;;;;;;;5.88;2.22;;;;;;;;;;5053238;28;20029;-52
2022/02/24 14:09:23;;;;;;;6.78;2.05;;;;;;;;;;5051740;28;20033;-50
2022/02/24 14:11:49;;;;;;;;;;;;;;;;;;5045958;28;20435;-51
2022/02/24 14:14:17;;;;;;;8.45;2.00;;;;;;;;;;5043698;28;19962;-50
2022/02/24 14:16:43;;;;;;;6.05;1.80;;;;;;;;;;5046417;28;20033;-52
2022/02/24 14:19:10;;;;;;;5.57;1.85;;;;;;;;;;5053166;28;20037;-50
2022/02/24 14:21:37;;;;;;;4.95;1.77;;;;;;;;;;5055789;28;20033;-53
2022/02/24 14:24:03;;;;;;;5.63;2.00;;;;;;;;;;5045364;28;20040;-52
2022/02/24 14:26:30;;;;;;;7.07;2.17;;;;;;;;;;5048777;28;20411;-50
2022/02/24 14:28:56;;;;;;;6.93;2.03;;;;;;;;;;5064620;28;20036;-53
2022/02/24 14:31:24;;;;;;;8.88;2.47;;;;;;;;;;5069024;28;20047;-51
2022/02/24 14:33:51;;;;;;;4.30;2.22;;;;;;;;;;5069599;28;20025;-49
2022/02/24 14:36:18;;;;;;;8.93;2.80;;;;;;;;;;5068915;28;20043;-52
2022/02/24 14:38:45;;;;;;;8.10;2.78;;;;;;;;;;5067173;28;20435;-50
2022/02/24 14:41:13;;;;;;;5.18;2.45;;;;;;;;;;5069315;28;20102;-50
2022/02/24 14:43:40;;;;;;;5.25;1.85;;;;;;;;;;5069775;28;20024;-51
2022/02/24 14:46:06;;;;;;;4.30;1.60;;;;;;;;;;5067711;28;20510;-48
2022/02/24 14:48:34;;;;;;;6.30;2.10;;;;;;;;;;5066028;28;20068;-50